sensor_id;sensor_type;location;lat;lon;timestamp;temperature;humidity
72646;DHT22;60687;53.876;10.674;2022-07-23T00:05:32;16.50;65.70
72646;DHT22;60687;53.876;10.674;2022-07-23T00:26:28;16.50;66.20
72646;DHT22;60687;53.876;10.674;2022-07-23T00:36:42;16.40;66.30
72646;DHT22;60687;53.876;10.674;2022-07-23T01:20:14;16.40;67.00
72646;DHT22;60687;53.876;10.674;2022-07-23T01:30:50;16.30;66.90
72646;DHT22;60687;53.876;10.674;2022-07-23T01:40:52;16.20;67.30
72646;DHT22;60687;53.876;10.674;2022-07-23T01:50:56;16.20;67.50
72646;DHT22;60687;53.876;10.674;2022-07-23T02:00:58;16.20;67.90
72646;DHT22;60687;53.876;10.674;2022-07-23T02:11:01;16.10;67.90
72646;DHT22;60687;53.876;10.674;2022-07-23T02:21:03;16.20;68.30
72646;DHT22;60687;53.876;10.674;2022-07-23T02:31:07;16.10;68.50
72646;DHT22;60687;53.876;10.674;2022-07-23T02:41:09;16.10;68.80
72646;DHT22;60687;53.876;10.674;2022-07-23T02:51:13;16.10;69.10
72646;DHT22;60687;53.876;10.674;2022-07-23T03:01:15;16.00;69.70
72646;DHT22;60687;53.876;10.674;2022-07-23T03:11:18;16.00;70.20
72646;DHT22;60687;53.876;10.674;2022-07-23T03:21:20;15.90;70.20
72646;DHT22;60687;53.876;10.674;2022-07-23T03:31:24;15.90;70.40
72646;DHT22;60687;53.876;10.674;2022-07-23T03:41:26;15.80;70.30
72646;DHT22;60687;53.876;10.674;2022-07-23T03:51:29;15.90;70.90
72646;DHT22;60687;53.876;10.674;2022-07-23T04:01:31;15.80;70.70
72646;DHT22;60687;53.876;10.674;2022-07-23T04:11:35;15.80;71.30
72646;DHT22;60687;53.876;10.674;2022-07-23T04:21:37;15.90;71.50
72646;DHT22;60687;53.876;10.674;2022-07-23T04:31:40;15.90;71.50
72646;DHT22;60687;53.876;10.674;2022-07-23T04:41:42;15.80;71.70
72646;DHT22;60687;53.876;10.674;2022-07-23T04:52:01;15.80;71.90
72646;DHT22;60687;53.876;10.674;2022-07-23T05:02:03;15.90;71.60
72646;DHT22;60687;53.876;10.674;2022-07-23T05:12:07;16.00;71.70
72646;DHT22;60687;53.876;10.674;2022-07-23T05:22:09;16.00;71.40
72646;DHT22;60687;53.876;10.674;2022-07-23T05:32:12;16.10;71.50
72646;DHT22;60687;53.876;10.674;2022-07-23T05:42:14;16.10;71.00
72646;DHT22;60687;53.876;10.674;2022-07-23T05:52:23;16.10;71.60
72646;DHT22;60687;53.876;10.674;2022-07-23T06:02:25;16.20;71.50
72646;DHT22;60687;53.876;10.674;2022-07-23T06:12:28;16.10;71.60
72646;DHT22;60687;53.876;10.674;2022-07-23T06:22:30;16.20;71.50
72646;DHT22;60687;53.876;10.674;2022-07-23T06:32:34;16.20;72.70
72646;DHT22;60687;53.876;10.674;2022-07-23T06:42:36;16.10;72.50
72646;DHT22;60687;53.876;10.674;2022-07-23T06:52:41;16.10;72.30
72646;DHT22;60687;53.876;10.674;2022-07-23T07:02:43;16.20;71.90
72646;DHT22;60687;53.876;10.674;2022-07-23T07:12:46;16.20;72.30
72646;DHT22;60687;53.876;10.674;2022-07-23T07:22:49;16.30;72.50
72646;DHT22;60687;53.876;10.674;2022-07-23T07:32:53;16.30;73.90
72646;DHT22;60687;53.876;10.674;2022-07-23T07:42:56;16.30;74.50
72646;DHT22;60687;53.876;10.674;2022-07-23T07:53:02;16.30;75.60
72646;DHT22;60687;53.876;10.674;2022-07-23T08:03:05;16.50;76.10
72646;DHT22;60687;53.876;10.674;2022-07-23T08:13:12;16.70;74.70
72646;DHT22;60687;53.876;10.674;2022-07-23T08:23:15;17.10;73.00
72646;DHT22;60687;53.876;10.674;2022-07-23T08:33:24;17.50;70.90
72646;DHT22;60687;53.876;10.674;2022-07-23T08:43:33;18.00;69.40
72646;DHT22;60687;53.876;10.674;2022-07-23T08:53:59;18.30;66.50
72646;DHT22;60687;53.876;10.674;2022-07-23T09:04:02;18.80;63.00
72646;DHT22;60687;53.876;10.674;2022-07-23T09:14:08;18.80;63.40
72646;DHT22;60687;53.876;10.674;2022-07-23T09:24:11;18.70;62.10
72646;DHT22;60687;53.876;10.674;2022-07-23T09:34:28;18.70;62.40
72646;DHT22;60687;53.876;10.674;2022-07-23T09:44:41;18.60;61.40
72646;DHT22;60687;53.876;10.674;2022-07-23T09:54:45;18.90;61.30
72646;DHT22;60687;53.876;10.674;2022-07-23T10:04:49;18.90;61.50
72646;DHT22;60687;53.876;10.674;2022-07-23T10:14:56;18.80;61.30
72646;DHT22;60687;53.876;10.674;2022-07-23T14:26:20;20.10;55.50
72646;DHT22;60687;53.876;10.674;2022-07-23T14:36:47;19.80;55.50
72646;DHT22;60687;53.876;10.674;2022-07-23T14:47:26;19.60;56.50
72646;DHT22;60687;53.876;10.674;2022-07-23T14:58:23;19.40;57.60
72646;DHT22;60687;53.876;10.674;2022-07-23T15:09:15;19.40;58.40
72646;DHT22;60687;53.876;10.674;2022-07-23T15:19:46;19.60;57.60
72646;DHT22;60687;53.876;10.674;2022-07-23T15:41:18;19.10;58.80
72646;DHT22;60687;53.876;10.674;2022-07-23T15:51:53;19.20;59.00
72646;DHT22;60687;53.876;10.674;2022-07-23T16:02:56;19.30;57.40
72646;DHT22;60687;53.876;10.674;2022-07-23T16:13:53;19.30;58.00
72646;DHT22;60687;53.876;10.674;2022-07-23T17:06:47;19.10;58.00
72646;DHT22;60687;53.876;10.674;2022-07-23T17:16:58;18.90;57.70
72646;DHT22;60687;53.876;10.674;2022-07-23T17:38:05;18.70;59.70
72646;DHT22;60687;53.876;10.674;2022-07-23T17:48:42;18.70;60.60
72646;DHT22;60687;53.876;10.674;2022-07-23T18:32:16;18.30;60.40
72646;DHT22;60687;53.876;10.674;2022-07-23T18:53:11;18.10;60.50
72646;DHT22;60687;53.876;10.674;2022-07-23T19:25:44;17.80;61.40
72646;DHT22;60687;53.876;10.674;2022-07-23T19:35:59;17.70;61.60
72646;DHT22;60687;53.876;10.674;2022-07-23T22:10:33;16.00;64.90
72646;DHT22;60687;53.876;10.674;2022-07-23T22:21:34;15.80;65.40
72646;DHT22;60687;53.876;10.674;2022-07-23T23:05:41;15.50;66.50
72646;DHT22;60687;53.876;10.674;2022-07-23T23:16:21;15.50;67.20
72646;DHT22;60687;53.876;10.674;2022-07-23T23:27:14;15.40;67.20
72646;DHT22;60687;53.876;10.674;2022-07-23T23:37:49;15.30;68.00
